Walland, Tennessee
Current Conditions -  °F | °C
As of 8:53 AM on Friday 19 Dec 2014 (Local Time) from KTYS Reporting Station
Few Clouds Few Clouds  
Wind Chill: 30°   Ceiling: Unl
Heat Index: 36°   Visibility: 10mi
Dew Point: 27°   Wind: 8mph
Humidity: 70%   Direction: 360°N
Pressure: 30.2"   Gusts: NA
Location:  35.73°N, 83.81°W
Report Text: KTYS 191353Z 36007KT 10SM FEW045 FEW250 02/M03 A3020 RMK AO2 SLP231 T00221028
Loading
Personal Weather Stations






























Interactive Weather Map New forecast layout! Learn more

10-Day Weather Forecast

Advertisements
Track Severe Weather on mobile